Time;durP1;ratioP1;P1;durP2;ratioP2;P2;SDS_P1;SDS_P2;PMS_P1;PMS_P2;Temp;Humidity;BMP_temperature;BMP_pressure;BME280_temperature;BME280_humidity;BME280_pressure;Samples;Min_cycle;Max_cycle;Signal;HPM_P1;HPM_P2
2022/06/24 00:00:45;;;;;;;3.03;1.90;;;19.70;99.90;;;;;;5074871;28;20123;-26
2022/06/24 00:03:18;;;;;;;6.00;2.00;;;19.80;90.40;;;;;;5074546;28;20036;-26
2022/06/24 00:05:46;;;;;;;5.20;1.70;;;19.90;80.10;;;;;;5074666;28;20049;-26
2022/06/24 00:08:12;;;;;;;2.78;1.63;;;19.90;79.90;;;;;;5074728;28;20048;-26
2022/06/24 00:10:38;;;;;;;3.88;1.95;;;19.80;83.30;;;;;;5074694;28;20072;-26
2022/06/24 00:13:05;;;;;;;5.00;1.80;;;19.80;75.30;;;;;;5075424;28;20049;-26
2022/06/24 00:15:36;;;;;;;4.07;1.95;;;19.80;78.00;;;;;;5074516;28;20040;-26
2022/06/24 00:18:19;;;;;;;4.30;1.73;;;19.80;60.70;;;;;;5074592;28;20101;-26
2022/06/24 00:20:49;;;;;;;3.58;1.40;;;19.80;40.20;;;;;;5073645;28;20047;-26
2022/06/24 00:23:17;;;;;;;3.60;1.52;;;19.90;25.90;;;;;;5075085;28;20368;-26
2022/06/24 00:25:46;;;;;;;4.55;1.75;;;20.00;1.00;;;;;;5074244;28;20063;-26
2022/06/24 00:28:13;;;;;;;3.03;1.85;;;20.10;1.00;;;;;;5073393;28;20437;-26
2022/06/24 00:30:44;;;;;;;3.63;1.80;;;20.10;1.00;;;;;;5074398;28;20075;-26
2022/06/24 00:33:10;;;;;;;2.47;1.55;;;20.20;1.00;;;;;;5075179;28;20374;-26
2022/06/24 00:35:42;;;;;;;3.20;1.95;;;20.20;1.00;;;;;;5074460;28;20045;-26
2022/06/24 00:38:31;;;;;;;5.50;2.00;;;20.10;1.00;;;;;;5074537;28;20110;-26
2022/06/24 00:41:09;;;;;;;2.65;1.58;;;20.10;1.00;;;;;;5074533;28;20048;-26
2022/06/24 00:43:39;;;;;;;3.00;1.70;;;20.10;1.00;;;;;;5074365;28;20055;-26
2022/06/24 00:46:22;;;;;;;4.80;1.77;;;20.00;1.00;;;;;;5074154;28;20037;-26
2022/06/24 00:48:50;;;;;;;8.23;1.90;;;19.90;1.00;;;;;;5074904;28;20102;-26
2022/06/24 00:51:17;;;;;;;2.72;1.40;;;19.80;1.00;;;;;;5073701;28;20426;-26
2022/06/24 00:53:48;;;;;;;4.03;1.50;;;19.80;6.90;;;;;;5056503;28;20547;-26
2022/06/24 00:56:16;;;;;;;3.85;1.88;;;19.80;1.00;;;;;;5073940;28;20097;-26
2022/06/24 00:59:00;;;;;;;6.57;1.88;;;19.70;1.00;;;;;;5073900;28;20053;-26
2022/06/24 01:01:33;;;;;;;2.40;1.60;;;19.70;1.00;;;;;;5073944;28;20486;-26
2022/06/24 01:04:01;;;;;;;4.95;1.70;;;19.70;1.00;;;;;;5072779;28;20048;-27
2022/06/24 01:06:31;;;;;;;3.67;1.50;;;19.80;1.00;;;;;;5074458;28;20051;-26
2022/06/24 01:08:57;;;;;;;2.42;1.45;;;19.80;1.00;;;;;;5073790;28;20490;-26
2022/06/24 01:11:28;;;;;;;3.72;1.65;;;19.80;1.00;;;;;;5073441;28;20371;-26
2022/06/24 01:13:55;;;;;;;3.45;1.48;;;19.80;1.00;;;;;;5073700;28;20052;-26
2022/06/24 01:16:21;;;;;;;3.22;1.70;;;19.80;1.00;;;;;;5074535;28;20044;-26
2022/06/24 01:18:55;;;;;;;7.55;1.88;;;19.70;1.00;;;;;;5074304;28;20497;-26
2022/06/24 01:21:41;;;;;;;5.25;2.05;;;19.70;1.00;;;;;;5074525;28;20059;-26
2022/06/24 01:24:12;;;;;;;2.65;1.83;;;19.70;1.00;;;;;;5073655;28;20044;-26
2022/06/24 01:26:40;;;;;;;8.13;1.98;;;19.70;1.00;;;;;;5073576;28;20084;-26
2022/06/24 01:29:07;;;;;;;3.00;1.80;;;19.60;1.00;;;;;;5073564;28;20086;-26
2022/06/24 01:31:33;;;;;;;4.18;2.30;;;19.60;1.00;;;;;;5073553;28;20052;-26
2022/06/24 01:33:59;;;;;;;2.85;1.85;;;19.50;1.00;;;;;;5072541;28;20049;-26
2022/06/24 01:36:25;;;;;;;3.50;1.95;;;19.50;1.00;;;;;;5073495;28;20114;-26
2022/06/24 01:38:51;;;;;;;3.83;2.00;;;19.50;1.00;;;;;;5073525;28;20055;-27
2022/06/24 01:41:17;;;;;;;4.55;2.03;;;19.50;1.00;;;;;;5073564;28;20044;-26
2022/06/24 01:43:43;;;;;;;4.28;1.85;;;19.40;1.00;;;;;;5073431;28;20052;-26
2022/06/24 01:46:11;;;;;;;3.20;1.70;;;19.40;4.70;;;;;;5073724;28;20382;-26
2022/06/24 01:48:37;;;;;;;3.03;1.55;;;19.40;1.00;;;;;;5073413;28;20053;-26
2022/06/24 01:51:04;;;;;;;3.40;1.63;;;19.30;9.00;;;;;;5073354;28;20048;-26
2022/06/24 01:53:30;;;;;;;4.45;1.77;;;19.30;17.40;;;;;;5074958;28;20102;-26
2022/06/24 01:55:56;;;;;;;3.70;1.50;;;19.30;22.00;;;;;;5076120;28;20044;-26
2022/06/24 01:58:21;;;;;;;2.78;1.90;;;19.20;28.10;;;;;;5077345;28;20083;-26
2022/06/24 02:00:47;;;;;;;6.47;1.88;;;19.10;39.30;;;;;;5077269;28;20095;-26
2022/06/24 02:03:13;;;;;;;5.32;1.90;;;19.10;36.30;;;;;;5076180;28;20051;-26
2022/06/24 02:05:40;;;;;;;4.10;2.22;;;19.10;62.70;;;;;;5077542;28;20058;-26
2022/06/24 02:08:06;;;;;;;3.63;2.08;;;19.00;64.70;;;;;;5077639;28;20083;-26
2022/06/24 02:13:29;;;;;;;2.90;2.20;;;18.90;93.30;;;;;;5077222;28;20049;-26
2022/06/24 02:16:01;;;;;;;3.15;1.75;;;18.80;99.90;;;;;;5078009;28;20102;-26
2022/06/24 02:18:29;;;;;;;2.97;2.20;;;18.70;99.90;;;;;;5076845;28;20509;-26
2022/06/24 02:20:55;;;;;;;3.25;2.42;;;18.70;99.90;;;;;;5076124;28;20048;-26
2022/06/24 02:23:26;;;;;;;16.13;3.47;;;18.60;99.90;;;;;;5076092;28;20052;-26
2022/06/24 02:25:53;;;;;;;7.03;2.58;;;18.60;99.90;;;;;;5077319;28;20040;-26
2022/06/24 02:28:20;;;;;;;5.53;2.88;;;18.60;99.90;;;;;;5076773;28;20398;-26
2022/06/24 02:30:47;;;;;;;5.63;2.53;;;18.60;99.90;;;;;;5076735;28;20044;-26
2022/06/24 02:33:13;;;;;;;4.22;2.47;;;18.60;99.90;;;;;;5075370;28;20048;-26
2022/06/24 02:35:40;;;;;;;4.88;2.70;;;18.60;99.90;;;;;;5076490;28;20170;-26
2022/06/24 02:38:06;;;;;;;4.95;2.75;;;18.60;99.90;;;;;;5075548;28;20053;-26
2022/06/24 02:40:48;;;;;;;4.78;2.72;;;18.60;99.90;;;;;;5076479;28;20090;-26
2022/06/24 02:43:25;;;;;;;5.75;2.90;;;18.60;99.90;;;;;;5075211;28;20052;-26
2022/06/24 02:45:59;;;;;;;5.07;2.60;;;18.70;99.90;;;;;;5075721;28;20129;-26
2022/06/24 02:48:26;;;;;;;6.43;3.00;;;18.70;99.90;;;;;;5076411;28;20048;-26
2022/06/24 02:50:57;;;;;;;4.88;3.40;;;18.70;99.90;;;;;;5076280;28;20044;-26
2022/06/24 02:53:23;;;;;;;8.02;3.58;;;18.70;99.90;;;;;;5076277;28;20049;-26
2022/06/24 02:55:52;;;;;;;5.03;3.20;;;18.80;99.90;;;;;;5076165;28;20044;-26
2022/06/24 02:58:18;;;;;;;4.85;3.15;;;18.80;99.90;;;;;;5076993;28;20048;-26
2022/06/24 03:00:44;;;;;;;4.25;3.20;;;18.80;99.90;;;;;;5075814;28;20433;-26
2022/06/24 03:03:12;;;;;;;5.45;2.85;;;18.90;99.90;;;;;;5076690;28;20056;-26
2022/06/24 03:05:39;;;;;;;7.72;3.17;;;18.90;99.90;;;;;;5075054;28;20068;-26
2022/06/24 03:08:05;;;;;;;6.28;3.20;;;18.90;99.90;;;;;;5074802;28;20052;-26
2022/06/24 03:10:31;;;;;;;3.53;3.22;;;18.90;99.90;;;;;;5076772;28;20141;-26
2022/06/24 03:12:57;;;;;;;8.35;3.00;;;19.00;99.90;;;;;;5074691;28;20123;-26
2022/06/24 03:15:23;;;;;;;3.85;3.30;;;19.00;99.90;;;;;;5076342;28;20462;-26
2022/06/24 03:17:49;;;;;;;4.32;3.30;;;18.90;99.90;;;;;;5075796;28;20048;-26
2022/06/24 03:20:14;;;;;;;4.45;3.35;;;18.90;99.90;;;;;;5075806;28;20052;-26
2022/06/24 03:22:40;;;;;;;5.35;3.30;;;18.80;99.90;;;;;;5075737;28;20047;-26
2022/06/24 03:25:07;;;;;;;6.80;3.25;;;18.80;99.90;;;;;;5075719;28;20087;-26
2022/06/24 03:27:34;;;;;;;3.88;3.15;;;18.70;99.90;;;;;;5075610;28;20106;-26
2022/06/24 03:30:00;;;;;;;6.10;3.20;;;18.70;99.90;;;;;;5075581;28;20444;-26
2022/06/24 03:32:26;;;;;;;3.33;2.92;;;18.60;99.90;;;;;;5075573;28;20063;-26
2022/06/24 03:34:51;;;;;;;4.65;3.38;;;18.60;99.90;;;;;;5075417;28;20037;-26
2022/06/24 03:37:17;;;;;;;3.72;3.15;;;18.60;99.90;;;;;;5075487;28;20482;-26
2022/06/24 03:39:43;;;;;;;6.32;3.10;;;18.60;99.90;;;;;;5074422;28;20391;-26
2022/06/24 03:42:09;;;;;;;6.32;3.25;;;18.70;99.90;;;;;;5074128;28;20044;-26
2022/06/24 03:44:35;;;;;;;4.97;3.05;;;18.70;99.90;;;;;;5057327;28;20054;-26
2022/06/24 03:47:03;;;;;;;5.57;3.28;;;18.70;99.90;;;;;;5074548;28;20122;-26
2022/06/24 03:49:29;;;;;;;4.93;3.13;;;18.70;99.90;;;;;;5075156;28;20051;-26
2022/06/24 03:51:55;;;;;;;4.88;3.30;;;18.80;99.90;;;;;;5075201;28;20036;-26
2022/06/24 03:54:21;;;;;;;5.50;3.22;;;18.80;99.90;;;;;;5075021;28;20509;-26
2022/06/24 03:56:47;;;;;;;6.85;2.88;;;18.80;99.90;;;;;;5074090;28;20052;-26
2022/06/24 03:59:13;;;;;;;6.72;3.30;;;18.80;99.90;;;;;;5073743;28;20398;-26
2022/06/24 04:01:39;;;;;;;6.75;3.10;;;18.90;99.90;;;;;;5075212;28;20044;-26
2022/06/24 04:04:04;;;;;;;7.75;3.25;;;19.00;99.90;;;;;;5075453;28;20040;-26
2022/06/24 04:06:30;;;;;;;4.32;3.28;;;19.10;99.90;;;;;;5074725;28;20407;-26
2022/06/24 04:08:56;;;;;;;6.38;2.85;;;19.10;99.90;;;;;;5074771;28;20085;-26
2022/06/24 04:11:23;;;;;;;4.68;2.83;;;19.20;99.90;;;;;;5074690;28;20044;-24
2022/06/24 04:13:49;;;;;;;6.65;3.25;;;19.20;99.90;;;;;;5073576;28;20044;-24
2022/06/24 04:16:14;;;;;;;5.25;3.15;;;19.20;99.90;;;;;;5073296;28;20045;-23
2022/06/24 04:18:40;;;;;;;3.65;3.00;;;19.20;99.90;;;;;;5073689;28;20051;-23
2022/06/24 04:21:16;;;;;;;4.93;3.10;;;19.30;99.90;;;;;;5073612;28;20036;-24
2022/06/24 04:23:43;;;;;;;5.80;3.40;;;19.40;99.90;;;;;;5074792;28;20048;-24
2022/06/24 04:26:09;;;;;;;4.90;3.65;;;19.40;99.90;;;;;;5074406;28;20478;-24
2022/06/24 04:28:35;;;;;;;6.43;3.88;;;19.50;99.90;;;;;;5074280;28;20056;-24
2022/06/24 04:31:01;;;;;;;5.35;4.07;;;19.50;99.90;;;;;;5074321;28;20059;-24
2022/06/24 04:33:27;;;;;;;6.03;4.18;;;19.50;99.90;;;;;;5073125;28;20106;-23
2022/06/24 04:35:53;;;;;;;7.93;4.57;;;19.60;99.90;;;;;;5073899;28;20049;-23
2022/06/24 04:38:19;;;;;;;6.28;3.83;;;19.50;99.90;;;;;;5074243;28;20047;-24
2022/06/24 04:40:44;;;;;;;8.98;4.05;;;19.50;99.90;;;;;;5074229;28;20048;-23
2022/06/24 04:43:10;;;;;;;5.68;4.25;;;19.50;1.00;;;;;;5073215;28;20040;-24
2022/06/24 04:45:36;;;;;;;7.75;4.38;;;19.50;1.00;;;;;;5074120;28;20048;-23
2022/06/24 04:48:03;;;;;;;6.28;4.38;;;19.60;1.00;;;;;;5074142;28;20052;-23
2022/06/24 04:50:29;;;;;;;11.27;3.78;;;19.70;1.00;;;;;;5074022;28;20491;-24
2022/06/24 04:52:54;;;;;;;8.88;3.33;;;19.90;1.00;;;;;;5072885;28;20059;-24
2022/06/24 04:55:20;;;;;;;4.65;3.38;;;20.00;99.90;;;;;;5073215;28;20051;-24
2022/06/24 04:57:47;;;;;;;4.18;3.22;;;20.10;1.00;;;;;;5072753;28;20052;-24
2022/06/24 05:00:15;;;;;;;11.93;4.00;;;20.30;1.00;;;;;;5074470;28;20138;-24
2022/06/24 05:02:41;;;;;;;8.50;3.67;;;20.40;1.00;;;;;;5072900;28;20094;-24
2022/06/24 05:05:08;;;;;;;7.25;3.50;;;20.60;1.00;;;;;;5072651;28;20074;-24
2022/06/24 05:07:35;;;;;;;7.18;3.90;;;20.90;1.00;;;;;;5074353;28;20055;-24
2022/06/24 05:10:00;;;;;;;6.72;4.10;;;21.20;99.90;;;;;;5073777;28;20081;-24
2022/06/24 05:12:26;;;;;;;15.55;4.40;;;21.10;99.90;;;;;;5073708;28;20041;-24
2022/06/24 05:14:52;;;;;;;11.48;4.63;;;21.00;1.00;;;;;;5072145;28;20498;-24
2022/06/24 05:17:18;;;;;;;5.22;3.90;;;20.90;1.00;;;;;;5072777;28;20052;-24
2022/06/24 05:19:43;;;;;;;11.63;5.72;;;20.80;1.00;;;;;;5073704;28;20052;-24
2022/06/24 05:22:09;;;;;;;9.43;5.40;;;20.90;1.00;;;;;;5073361;28;20040;-24
2022/06/24 05:24:35;;;;;;;5.95;5.35;;;21.10;1.00;;;;;;5073689;28;20085;-24
2022/06/24 05:27:00;;;;;;;9.98;5.72;;;21.30;1.00;;;;;;5073580;28;20507;-24
2022/06/24 05:29:26;;;;;;;14.18;6.15;;;21.30;1.00;;;;;;5055234;28;20044;-24
2022/06/24 05:31:52;;;;;;;17.50;7.43;;;21.10;1.00;;;;;;5055902;28;20127;-24
2022/06/24 05:34:17;;;;;;;16.20;9.32;;;21.00;35.00;;;;;;5074037;28;20051;-24
2022/06/24 05:36:43;;;;;;;13.35;9.57;;;20.80;99.90;;;;;;5074080;28;20053;-24
2022/06/24 05:39:09;;;;;;;12.20;10.02;;;20.70;99.90;;;;;;5072317;28;20055;-24
2022/06/24 05:41:38;;;;;;;13.63;10.20;;;20.70;99.90;;;;;;5073105;28;20048;-24
2022/06/24 05:44:04;;;;;;;14.48;11.25;;;21.00;99.90;;;;;;5073407;28;20088;-24
2022/06/24 05:46:34;;;;;;;19.27;11.52;;;21.50;1.00;;;;;;5073412;28;20083;-24
2022/06/24 05:49:00;;;;;;;24.05;9.40;;;21.80;1.00;;;;;;5073424;28;20044;-24
2022/06/24 05:51:27;;;;;;;17.95;6.53;;;21.80;1.00;;;;;;5072188;28;20051;-23
2022/06/24 05:56:40;;;;;;;10.13;3.80;;;21.60;99.90;;;;;;5073637;28;20067;-24
2022/06/24 05:59:05;;;;;;;13.07;4.32;;;21.30;99.90;;;;;;5072374;28;20103;-24
2022/06/24 06:01:31;;;;;;;13.93;3.78;;;21.10;99.90;;;;;;5073275;28;20498;-23
2022/06/24 06:03:57;;;;;;;9.40;3.72;;;20.80;99.90;;;;;;5073890;28;20057;-23
2022/06/24 06:06:23;;;;;;;13.95;3.63;;;20.70;1.00;;;;;;5073217;28;20474;-23
2022/06/24 06:08:51;;;;;;;11.98;3.58;;;20.60;1.00;;;;;;5073269;28;20044;-23
2022/06/24 06:11:24;;;;;;;8.68;3.50;;;20.50;1.00;;;;;;5073222;28;20127;-23
2022/06/24 06:13:52;;;;;;;12.57;3.80;;;20.40;95.00;;;;;;5073755;28;20470;-23
2022/06/24 06:16:19;;;;;;;11.02;4.43;;;20.30;99.90;;;;;;5073087;28;20048;-23
2022/06/24 06:18:48;;;;;;;12.00;4.45;;;20.10;1.00;;;;;;5073102;28;20051;-23
2022/06/24 06:21:15;;;;;;;9.73;4.55;;;20.00;99.90;;;;;;5073652;28;20084;-23
2022/06/24 06:23:43;;;;;;;7.60;3.35;;;19.90;99.90;;;;;;5055898;28;20060;-23
2022/06/24 06:26:10;;;;;;;9.10;3.90;;;19.90;99.90;;;;;;5073442;28;20047;-23
2022/06/24 06:28:39;;;;;;;14.93;3.78;;;19.80;99.90;;;;;;5073293;28;20049;-23
2022/06/24 06:31:07;;;;;;;15.15;5.00;;;19.80;99.90;;;;;;5039968;28;20045;-20
2022/06/24 06:33:32;;;;;;;26.13;6.60;;;19.60;99.90;;;;;;5072976;28;20559;-18
2022/06/24 06:36:03;;;;;;;18.77;6.60;;;19.20;99.90;;;;;;5055916;28;20045;-18
2022/06/24 06:38:29;;;;;;;16.05;5.97;;;18.90;1.00;;;;;;5071969;28;20128;-17
2022/06/24 06:40:55;;;;;;;13.65;6.43;;;18.70;1.00;;;;;;5075024;28;20158;-17
2022/06/24 06:43:20;;;;;;;20.35;8.35;;;18.70;99.90;;;;;;5058640;28;20113;-17
2022/06/24 06:45:46;;;;;;;11.65;7.00;;;18.70;99.90;;;;;;5075446;28;20059;-17
2022/06/24 06:48:12;;;;;;;15.25;6.97;;;18.70;99.90;;;;;;5076350;28;20135;-17
2022/06/24 06:50:37;;;;;;;12.80;6.55;;;18.70;99.90;;;;;;5076634;28;20044;-17
2022/06/24 06:53:03;;;;;;;13.50;7.03;;;18.90;99.90;;;;;;5076551;28;20131;-17
2022/06/24 06:55:30;;;;;;;14.77;7.07;;;19.10;99.90;;;;;;5076139;28;20043;-17
2022/06/24 06:57:55;;;;;;;11.73;8.68;;;19.30;99.90;;;;;;5076031;28;20048;-17
2022/06/24 07:00:21;;;;;;;21.23;8.68;;;19.30;99.90;;;;;;5076171;28;20124;-18
2022/06/24 07:02:47;;;;;;;12.32;8.32;;;19.50;99.90;;;;;;5076633;28;20467;-17
2022/06/24 07:05:13;;;;;;;10.63;6.88;;;19.50;99.90;;;;;;5076021;28;20054;-17
2022/06/24 07:07:39;;;;;;;11.32;6.60;;;19.60;99.90;;;;;;5076013;28;20109;-17
2022/06/24 07:10:05;;;;;;;10.70;5.50;;;19.60;99.90;;;;;;5076035;28;20131;-17
2022/06/24 07:12:30;;;;;;;12.15;5.88;;;19.70;99.90;;;;;;5058913;28;20151;-18
2022/06/24 07:14:56;;;;;;;15.23;6.05;;;19.60;99.90;;;;;;5076118;28;20123;-17
2022/06/24 07:17:22;;;;;;;13.77;5.78;;;19.60;99.90;;;;;;5075846;28;20465;-17
2022/06/24 07:19:47;;;;;;;9.55;5.35;;;19.50;99.90;;;;;;5075769;28;20052;-17
2022/06/24 07:22:14;;;;;;;11.88;5.53;;;19.40;99.90;;;;;;5075603;28;20044;-17
2022/06/24 07:24:40;;;;;;;11.63;6.18;;;19.20;99.90;;;;;;5075375;28;20056;-17
2022/06/24 07:27:09;;;;;;;15.30;6.10;;;19.10;99.90;;;;;;5075251;28;20079;-18
2022/06/24 07:29:35;;;;;;;16.17;5.95;;;19.10;99.90;;;;;;5075351;28;20555;-17
2022/06/24 07:32:02;;;;;;;12.40;5.47;;;19.00;99.90;;;;;;5074595;28;20390;-18
2022/06/24 07:34:30;;;;;;;13.75;5.90;;;19.00;99.90;;;;;;5075447;28;20040;-18
2022/06/24 07:37:00;;;;;;;13.80;5.10;;;18.90;99.90;;;;;;5074310;28;20087;-19
2022/06/24 07:39:27;;;;;;;10.90;5.45;;;18.80;99.90;;;;;;5076031;28;20052;-19
2022/06/24 07:41:53;;;;;;;12.77;6.13;;;18.80;99.90;;;;;;5075901;28;20044;-20
2022/06/24 07:44:19;;;;;;;11.52;5.78;;;18.80;99.90;;;;;;5075335;28;20052;-20
2022/06/24 07:46:45;;;;;;;15.85;6.82;;;18.90;99.90;;;;;;5076090;28;20401;-20
2022/06/24 07:49:11;;;;;;;11.95;6.78;;;18.90;99.90;;;;;;5074273;28;20044;-20
2022/06/24 07:51:37;;;;;;;11.75;5.90;;;18.90;99.90;;;;;;5074721;28;20125;-20
2022/06/24 07:54:05;;;;;;;9.45;5.05;;;18.90;99.90;;;;;;5075139;28;20040;-20
2022/06/24 07:59:16;;;;;;;11.18;5.78;;;18.80;99.90;;;;;;5075927;28;20084;-20
2022/06/24 08:01:42;;;;;;;16.27;6.70;;;18.80;99.90;;;;;;5075582;28;20517;-20
2022/06/24 08:04:11;;;;;;;13.20;6.07;;;18.80;99.90;;;;;;5074036;28;20090;-21
2022/06/24 08:06:45;;;;;;;16.38;5.32;;;18.90;99.90;;;;;;5073754;28;20049;-21
2022/06/24 08:09:11;;;;;;;13.25;6.95;;;19.00;99.90;;;;;;5074171;28;20056;-21
2022/06/24 08:11:37;;;;;;;12.55;6.18;;;18.90;99.90;;;;;;5074747;28;20044;-21
2022/06/24 08:14:03;;;;;;;14.93;6.72;;;18.90;99.90;;;;;;5074673;28;20434;-21
2022/06/24 08:16:28;;;;;;;15.55;6.47;;;19.00;99.90;;;;;;5074865;28;20075;-21
2022/06/24 08:18:55;;;;;;;13.98;5.78;;;19.00;99.90;;;;;;5056760;28;20044;-21
2022/06/24 08:21:21;;;;;;;14.55;6.10;;;19.00;99.90;;;;;;5075087;28;20051;-21
2022/06/24 08:23:47;;;;;;;14.05;5.53;;;18.90;99.90;;;;;;5074514;28;20044;-21
2022/06/24 08:26:13;;;;;;;10.63;6.00;;;19.00;99.90;;;;;;5074479;28;20124;-21
2022/06/24 08:28:39;;;;;;;14.20;5.70;;;18.90;99.90;;;;;;5073149;28;20049;-21
2022/06/24 08:31:05;;;;;;;11.63;5.65;;;19.00;99.90;;;;;;5073421;28;20048;-21
2022/06/24 08:33:30;;;;;;;11.68;5.03;;;19.00;99.90;;;;;;5074639;28;20486;-20
2022/06/24 08:35:56;;;;;;;10.70;4.35;;;19.00;99.90;;;;;;5073910;28;20040;-20
2022/06/24 08:38:22;;;;;;;7.35;4.47;;;19.00;99.90;;;;;;5074468;28;20102;-21
2022/06/24 08:40:49;;;;;;;10.68;5.32;;;19.00;99.90;;;;;;5074451;28;20048;-21
2022/06/24 08:43:16;;;;;;;11.70;5.10;;;19.00;99.90;;;;;;5074180;28;20079;-21
2022/06/24 08:45:42;;;;;;;9.93;5.93;;;19.10;99.90;;;;;;5073981;28;20052;-21
2022/06/24 08:48:10;;;;;;;12.82;6.00;;;19.30;99.90;;;;;;5074881;28;20048;-21
2022/06/24 08:50:36;;;;;;;15.15;5.45;;;19.40;99.90;;;;;;5074036;28;20098;-21
2022/06/24 08:53:07;;;;;;;8.50;5.22;;;19.40;99.90;;;;;;5073044;28;20127;-21
2022/06/24 08:55:37;;;;;;;9.80;5.63;;;19.50;99.90;;;;;;5073973;28;20047;-21
2022/06/24 08:58:07;;;;;;;8.77;5.38;;;19.60;99.90;;;;;;5073308;28;20048;-21
2022/06/24 09:00:33;;;;;;;10.30;5.60;;;19.70;99.90;;;;;;5072985;28;20056;-21
2022/06/24 09:02:59;;;;;;;9.63;4.95;;;19.80;99.90;;;;;;5073755;28;20074;-21
2022/06/24 09:05:27;;;;;;;7.97;5.10;;;19.90;99.90;;;;;;5072700;28;20082;-21
2022/06/24 09:08:10;;;;;;;10.07;5.30;;;19.90;99.90;;;;;;5073844;28;20056;-21
2022/06/24 09:10:36;;;;;;;;;;;19.90;99.90;;;;;;5074862;28;20121;-20
2022/06/24 09:13:03;;;;;;;11.07;6.07;;;19.90;99.90;;;;;;5073668;28;19920;-20
2022/06/24 09:15:29;;;;;;;8.93;5.40;;;19.90;99.90;;;;;;5074474;28;20048;-20
2022/06/24 09:17:57;;;;;;;8.88;5.10;;;19.90;99.90;;;;;;5073566;28;20379;-20
2022/06/24 09:20:25;;;;;;;17.60;5.78;;;19.90;99.90;;;;;;5073428;28;20525;-20
2022/06/24 09:23:01;;;;;;;11.23;5.72;;;19.90;99.90;;;;;;5073538;28;20106;-20
2022/06/24 09:25:26;;;;;;;9.00;5.40;;;19.90;99.90;;;;;;5073963;28;20062;-20
2022/06/24 09:27:52;;;;;;;12.15;5.95;;;19.70;99.90;;;;;;5073634;28;20474;-20
2022/06/24 09:30:19;;;;;;;11.98;6.65;;;19.70;99.90;;;;;;5073619;28;20057;-20
2022/06/24 09:32:52;;;;;;;12.70;7.22;;;19.50;99.90;;;;;;5074125;28;20089;-20
2022/06/24 09:35:19;;;;;;;14.60;6.63;;;19.40;99.90;;;;;;5074059;28;20548;-20
2022/06/24 09:37:46;;;;;;;16.20;9.35;;;19.40;99.90;;;;;;5074116;28;20088;-20
2022/06/24 09:40:41;;;;;;;17.02;8.75;;;19.30;99.90;;;;;;5072330;28;20044;-20
2022/06/24 09:43:10;;;;;;;10.40;5.70;;;19.30;99.90;;;;;;5068730;28;20049;-20
2022/06/24 09:45:49;;;;;;;17.30;8.90;;;19.20;99.90;;;;;;5073989;28;20055;-20
2022/06/24 09:48:37;;;;;;;15.40;8.57;;;19.20;99.90;;;;;;5072518;28;20048;-21
2022/06/24 09:51:07;;;;;;;12.98;8.05;;;19.10;99.90;;;;;;5073134;28;20490;-21
2022/06/24 09:53:40;;;;;;;15.80;8.52;;;19.10;99.90;;;;;;5072814;28;20052;-21
2022/06/24 09:56:07;;;;;;;20.95;8.88;;;19.10;99.90;;;;;;5072104;28;20040;-21
2022/06/24 09:58:42;;;;;;;10.80;6.60;;;19.10;99.90;;;;;;5072233;28;20052;-21
2022/06/24 10:01:08;;;;;;;17.65;7.97;;;19.20;99.90;;;;;;5073339;28;20405;-20
2022/06/24 10:03:35;;;;;;;14.38;7.72;;;19.20;99.90;;;;;;5073315;28;20037;-20
2022/06/24 10:06:08;;;;;;;12.18;6.97;;;19.10;99.90;;;;;;5055128;28;20449;-20
2022/06/24 10:08:37;;;;;;;12.32;6.80;;;19.20;99.90;;;;;;5072654;28;20425;-21
2022/06/24 10:11:09;;;;;;;13.77;8.20;;;19.20;99.90;;;;;;5073242;28;20041;-21
2022/06/24 10:13:35;;;;;;;12.32;6.95;;;19.10;99.90;;;;;;5073798;28;20075;-21
2022/06/24 10:16:05;;;;;;;10.02;7.45;;;19.10;99.90;;;;;;5075806;28;20090;-22
2022/06/24 10:18:43;;;;;;;7.72;6.57;;;19.00;99.90;;;;;;5077228;28;20131;-22
2022/06/24 10:21:11;;;;;;;11.02;8.10;;;18.90;99.90;;;;;;5077464;28;20088;-23
2022/06/24 10:23:39;;;;;;;12.55;9.32;;;18.70;99.90;;;;;;5060042;28;20044;-23
2022/06/24 10:26:10;;;;;;;11.60;8.52;;;18.50;99.90;;;;;;5076825;28;20083;-23
2022/06/24 10:28:59;;;;;;;11.60;8.90;;;18.40;99.90;;;;;;5077626;28;20049;-25
2022/06/24 10:31:53;;;;;;;13.43;10.63;;;18.30;99.90;;;;;;5077314;28;20462;-25
2022/06/24 10:34:21;;;;;;;13.55;8.50;;;18.20;99.90;;;;;;5076619;28;20131;-24
2022/06/24 10:37:09;;;;;;;10.82;9.18;;;18.10;99.90;;;;;;5076604;28;20048;-23
2022/06/24 10:39:55;;;;;;;9.95;6.22;;;17.90;99.90;;;;;;5054960;28;20056;-23
2022/06/24 10:42:29;;;;;;;8.02;6.95;;;17.80;99.90;;;;;;5076543;28;20040;-22
2022/06/24 10:45:03;;;;;;;9.85;7.75;;;17.70;99.90;;;;;;5076473;28;20048;-23
2022/06/24 10:47:40;;;;;;;7.47;6.60;;;17.50;99.90;;;;;;5077009;28;20094;-23
2022/06/24 10:50:13;;;;;;;7.45;5.47;;;17.50;99.90;;;;;;5077015;28;20076;-26
2022/06/24 10:52:59;;;;;;;7.72;5.20;;;17.40;99.90;;;;;;5076375;28;20049;-25
2022/06/24 10:55:33;;;;;;;8.63;5.88;;;17.30;99.90;;;;;;5077067;28;20044;-26
2022/06/24 10:58:07;;;;;;;10.60;6.10;;;17.30;99.90;;;;;;5075077;28;20045;-27
2022/06/24 11:00:39;;;;;;;7.55;5.22;;;17.20;99.90;;;;;;5076521;28;20052;-26
2022/06/24 11:03:05;;;;;;;6.32;4.20;;;17.20;99.90;;;;;;5076372;28;20044;-25
2022/06/24 11:05:38;;;;;;;12.23;5.75;;;17.10;99.90;;;;;;5076224;28;20536;-25
2022/06/24 11:08:15;;;;;;;8.43;4.97;;;17.10;99.90;;;;;;5076055;28;20099;-24
2022/06/24 11:10:44;;;;;;;9.38;5.55;;;17.00;99.90;;;;;;5074758;28;20123;-25
2022/06/24 11:13:14;;;;;;;8.90;6.05;;;17.00;99.90;;;;;;5074861;28;20048;-25
2022/06/24 11:15:58;;;;;;;7.45;5.90;;;16.90;99.90;;;;;;5074708;28;20052;-25
2022/06/24 11:18:35;;;;;;;6.30;5.68;;;17.00;99.90;;;;;;5074914;28;20483;-25
2022/06/24 11:21:01;;;;;;;7.22;5.28;;;16.90;99.90;;;;;;5075783;28;20068;-26
2022/06/24 11:23:37;;;;;;;11.00;6.93;;;17.00;99.90;;;;;;5075954;28;20544;-25
2022/06/24 11:26:10;;;;;;;11.88;7.60;;;17.00;99.90;;;;;;5075451;28;20055;-26
2022/06/24 11:28:39;;;;;;;15.60;9.95;;;17.10;99.90;;;;;;5075637;28;20048;-26
2022/06/24 11:31:24;;;;;;;15.55;10.55;;;17.10;99.90;;;;;;5076134;28;20087;-27
2022/06/24 11:34:07;;;;;;;14.18;10.05;;;17.20;99.90;;;;;;5075494;28;20052;-26
2022/06/24 11:36:37;;;;;;;12.70;10.38;;;17.20;99.90;;;;;;5075469;28;20475;-27
2022/06/24 11:39:05;;;;;;;12.55;8.70;;;17.20;99.90;;;;;;5074879;28;20044;-28
2022/06/24 11:41:39;;;;;;;9.77;8.77;;;17.30;99.90;;;;;;5075384;28;20048;-27
2022/06/24 11:44:08;;;;;;;11.77;7.45;;;17.30;99.90;;;;;;5075406;28;20553;-26
2022/06/24 11:46:36;;;;;;;10.43;8.00;;;17.30;99.90;;;;;;5075317;28;20069;-27
2022/06/24 11:49:06;;;;;;;9.50;8.30;;;17.30;99.90;;;;;;5075254;28;20051;-27
2022/06/24 11:51:32;;;;;;;10.65;8.40;;;17.30;99.90;;;;;;5075215;28;20486;-28
2022/06/24 11:54:03;;;;;;;10.02;7.65;;;17.20;99.90;;;;;;5075670;28;20051;-27
2022/06/24 11:56:37;;;;;;;8.60;7.70;;;17.30;99.90;;;;;;5075081;28;20044;-26
2022/06/24 11:59:06;;;;;;;12.25;7.95;;;17.30;99.90;;;;;;5074506;28;20075;-27
2022/06/24 12:01:33;;;;;;;11.00;8.30;;;17.30;99.90;;;;;;5074976;28;20048;-27
2022/06/24 12:04:01;;;;;;;9.52;7.75;;;17.40;99.90;;;;;;5074793;28;20071;-27
2022/06/24 12:06:29;;;;;;;10.07;8.18;;;17.40;99.90;;;;;;5074794;28;20557;-27
2022/06/24 12:08:56;;;;;;;10.00;7.70;;;17.40;99.90;;;;;;5074829;28;20040;-27
2022/06/24 12:11:23;;;;;;;11.05;8.38;;;17.40;99.90;;;;;;5074761;28;20088;-26
2022/06/24 12:13:55;;;;;;;11.43;7.63;;;17.40;99.90;;;;;;5074662;28;20045;-26
2022/06/24 12:16:21;;;;;;;14.13;9.50;;;17.60;99.90;;;;;;5074593;28;20552;-27
2022/06/24 12:18:47;;;;;;;13.27;10.93;;;17.60;99.90;;;;;;5073469;28;20041;-27
2022/06/24 12:21:12;;;;;;;17.35;13.13;;;17.70;99.90;;;;;;5074617;28;20074;-27
2022/06/24 12:23:42;;;;;;;17.08;13.10;;;17.90;99.90;;;;;;5074226;28;20101;-28
2022/06/24 12:26:16;;;;;;;11.00;9.85;;;18.10;99.90;;;;;;5075105;28;20037;-27
2022/06/24 12:28:43;;;;;;;14.02;9.80;;;18.40;99.90;;;;;;5074450;28;20048;-27
2022/06/24 12:31:12;;;;;;;16.33;12.02;;;18.50;99.90;;;;;;5057804;28;20140;-27
2022/06/24 12:33:46;;;;;;;15.85;12.52;;;18.90;99.90;;;;;;5073216;28;20082;-27
2022/06/24 12:36:17;;;;;;;15.10;11.85;;;19.30;99.90;;;;;;5073397;28;20046;-28
2022/06/24 12:39:01;;;;;;;13.70;10.88;;;19.60;99.90;;;;;;5074526;28;20356;-28
2022/06/24 12:41:27;;;;;;;11.88;8.95;;;20.00;99.90;;;;;;5057249;28;20392;-28
2022/06/24 12:44:01;;;;;;;7.15;6.30;;;20.00;99.90;;;;;;5074177;28;20040;-28
2022/06/24 12:46:33;;;;;;;8.88;7.35;;;20.00;99.90;;;;;;5074706;28;20048;-29
2022/06/24 12:51:46;;;;;;;8.35;5.93;;;20.10;99.90;;;;;;5074116;28;20052;-29
2022/06/24 12:54:13;;;;;;;10.13;6.95;;;20.00;99.90;;;;;;5074054;28;20117;-28
2022/06/24 12:56:40;;;;;;;9.40;8.40;;;19.90;99.90;;;;;;5073925;28;20048;-28
2022/06/24 12:59:06;;;;;;;13.52;8.48;;;20.10;99.90;;;;;;5073936;28;20127;-29
2022/06/24 13:01:43;;;;;;;11.10;7.47;;;20.50;99.90;;;;;;5074423;28;20078;-28